sensor_id;sensor_type;location;lat;lon;timestamp;temperature;humidity
65369;HTU21D;51970;53.484;49.488;2023-05-24T00:02:11;21.92;29.07
65369;HTU21D;51970;53.484;49.488;2023-05-24T00:04:39;21.87;29.16
65369;HTU21D;51970;53.484;49.488;2023-05-24T00:07:26;21.90;28.77
65369;HTU21D;51970;53.484;49.488;2023-05-24T00:09:52;21.89;29.39
65369;HTU21D;51970;53.484;49.488;2023-05-24T00:12:18;21.82;29.40
65369;HTU21D;51970;53.484;49.488;2023-05-24T00:14:54;21.77;29.89
65369;HTU21D;51970;53.484;49.488;2023-05-24T00:17:21;21.73;29.42
65369;HTU21D;51970;53.484;49.488;2023-05-24T00:19:47;21.68;29.26
65369;HTU21D;51970;53.484;49.488;2023-05-24T00:22:13;21.68;29.40
65369;HTU21D;51970;53.484;49.488;2023-05-24T00:24:39;21.67;29.30
65369;HTU21D;51970;53.484;49.488;2023-05-24T00:27:07;21.62;29.40
65369;HTU21D;51970;53.484;49.488;2023-05-24T00:29:36;21.60;29.78
65369;HTU21D;51970;53.484;49.488;2023-05-24T00:32:05;21.50;30.02
65369;HTU21D;51970;53.484;49.488;2023-05-24T00:34:32;21.45;30.42
65369;HTU21D;51970;53.484;49.488;2023-05-24T00:36:58;21.43;30.27
65369;HTU21D;51970;53.484;49.488;2023-05-24T00:39:26;21.42;30.09
65369;HTU21D;51970;53.484;49.488;2023-05-24T00:41:52;21.43;30.24
65369;HTU21D;51970;53.484;49.488;2023-05-24T00:44:18;21.44;30.42
65369;HTU21D;51970;53.484;49.488;2023-05-24T00:46:44;21.46;30.40
65369;HTU21D;51970;53.484;49.488;2023-05-24T00:49:11;21.46;30.61
65369;HTU21D;51970;53.484;49.488;2023-05-24T00:51:38;21.50;30.09
65369;HTU21D;51970;53.484;49.488;2023-05-24T00:54:05;21.53;29.91
65369;HTU21D;51970;53.484;49.488;2023-05-24T00:56:33;21.61;29.80
65369;HTU21D;51970;53.484;49.488;2023-05-24T00:58:59;21.90;29.35
65369;HTU21D;51970;53.484;49.488;2023-05-24T01:01:29;21.92;29.35
65369;HTU21D;51970;53.484;49.488;2023-05-24T01:04:00;21.83;29.28
65369;HTU21D;51970;53.484;49.488;2023-05-24T01:06:27;22.03;29.30
65369;HTU21D;51970;53.484;49.488;2023-05-24T01:11:42;22.40;28.70
65369;HTU21D;51970;53.484;49.488;2023-05-24T01:17:22;22.33;28.84
65369;HTU21D;51970;53.484;49.488;2023-05-24T01:20:18;22.39;28.72
65369;HTU21D;51970;53.484;49.488;2023-05-24T01:28:26;22.69;28.26
65369;HTU21D;51970;53.484;49.488;2023-05-24T01:30:54;22.60;28.42
65369;HTU21D;51970;53.484;49.488;2023-05-24T01:33:41;22.50;28.64
65369;HTU21D;51970;53.484;49.488;2023-05-24T01:36:08;22.58;28.49
65369;HTU21D;51970;53.484;49.488;2023-05-24T01:38:35;22.57;28.64
65369;HTU21D;51970;53.484;49.488;2023-05-24T01:44:46;22.79;28.05
65369;HTU21D;51970;53.484;49.488;2023-05-24T01:50:37;23.36;27.44
65369;HTU21D;51970;53.484;49.488;2023-05-24T01:53:13;24.33;25.70
65369;HTU21D;51970;53.484;49.488;2023-05-24T01:56:23;25.44;23.87
65369;HTU21D;51970;53.484;49.488;2023-05-24T01:58:53;26.07;23.39
65369;HTU21D;51970;53.484;49.488;2023-05-24T02:01:39;25.20;24.40
65369;HTU21D;51970;53.484;49.488;2023-05-24T02:04:07;24.18;25.81
65369;HTU21D;51970;53.484;49.488;2023-05-24T02:06:36;23.56;26.99
65369;HTU21D;51970;53.484;49.488;2023-05-24T02:09:06;23.22;27.78
65369;HTU21D;51970;53.484;49.488;2023-05-24T02:11:34;23.09;28.33
65369;HTU21D;51970;53.484;49.488;2023-05-24T02:14:00;23.08;27.87
65369;HTU21D;51970;53.484;49.488;2023-05-24T02:16:31;22.98;28.39
65369;HTU21D;51970;53.484;49.488;2023-05-24T02:18:58;22.86;28.71
65369;HTU21D;51970;53.484;49.488;2023-05-24T02:21:27;22.79;29.05
65369;HTU21D;51970;53.484;49.488;2023-05-24T02:24:04;22.67;29.03
65369;HTU21D;51970;53.484;49.488;2023-05-24T02:26:32;22.69;29.06
65369;HTU21D;51970;53.484;49.488;2023-05-24T02:28:58;22.61;29.16
65369;HTU21D;51970;53.484;49.488;2023-05-24T02:31:25;22.60;29.49
65369;HTU21D;51970;53.484;49.488;2023-05-24T02:34:26;22.56;29.51
65369;HTU21D;51970;53.484;49.488;2023-05-24T02:36:55;22.54;29.10
65369;HTU21D;51970;53.484;49.488;2023-05-24T02:39:40;22.64;29.39
65369;HTU21D;51970;53.484;49.488;2023-05-24T02:42:09;22.75;28.96
65369;HTU21D;51970;53.484;49.488;2023-05-24T02:44:59;22.87;28.67
65369;HTU21D;51970;53.484;49.488;2023-05-24T02:47:46;23.24;28.29
65369;HTU21D;51970;53.484;49.488;2023-05-24T02:50:17;23.35;28.10
65369;HTU21D;51970;53.484;49.488;2023-05-24T02:53:08;23.20;28.01
65369;HTU21D;51970;53.484;49.488;2023-05-24T02:55:42;23.10;28.48
65369;HTU21D;51970;53.484;49.488;2023-05-24T02:58:09;23.02;28.01
65369;HTU21D;51970;53.484;49.488;2023-05-24T03:00:39;22.92;28.15
65369;HTU21D;51970;53.484;49.488;2023-05-24T03:03:12;22.88;28.29
65369;HTU21D;51970;53.484;49.488;2023-05-24T03:05:43;22.87;28.37
65369;HTU21D;51970;53.484;49.488;2023-05-24T03:08:15;22.94;28.29
65369;HTU21D;51970;53.484;49.488;2023-05-24T03:10:41;23.05;28.39
65369;HTU21D;51970;53.484;49.488;2023-05-24T03:13:15;23.17;28.44
65369;HTU21D;51970;53.484;49.488;2023-05-24T03:15:48;23.28;28.13
65369;HTU21D;51970;53.484;49.488;2023-05-24T03:18:19;23.50;27.99
65369;HTU21D;51970;53.484;49.488;2023-05-24T03:20:46;23.66;27.76
65369;HTU21D;51970;53.484;49.488;2023-05-24T03:23:13;23.82;27.33
65369;HTU21D;51970;53.484;49.488;2023-05-24T03:26:09;23.94;27.25
65369;HTU21D;51970;53.484;49.488;2023-05-24T03:28:40;23.94;27.10
65369;HTU21D;51970;53.484;49.488;2023-05-24T03:31:19;23.95;27.18
65369;HTU21D;51970;53.484;49.488;2023-05-24T03:34:23;23.88;27.02
65369;HTU21D;51970;53.484;49.488;2023-05-24T03:36:54;23.83;27.09
65369;HTU21D;51970;53.484;49.488;2023-05-24T03:39:28;23.91;27.23
65369;HTU21D;51970;53.484;49.488;2023-05-24T03:42:29;24.13;27.13
65369;HTU21D;51970;53.484;49.488;2023-05-24T03:45:42;24.26;27.13
65369;HTU21D;51970;53.484;49.488;2023-05-24T03:48:44;24.30;26.75
65369;HTU21D;51970;53.484;49.488;2023-05-24T03:52:12;24.38;26.69
65369;HTU21D;51970;53.484;49.488;2023-05-24T03:54:52;24.43;26.82
65369;HTU21D;51970;53.484;49.488;2023-05-24T03:57:34;24.48;27.16
65369;HTU21D;51970;53.484;49.488;2023-05-24T04:00:12;24.50;27.00
65369;HTU21D;51970;53.484;49.488;2023-05-24T04:03:11;24.47;26.79
65369;HTU21D;51970;53.484;49.488;2023-05-24T04:05:40;24.50;27.03
65369;HTU21D;51970;53.484;49.488;2023-05-24T04:08:57;24.66;26.97
65369;HTU21D;51970;53.484;49.488;2023-05-24T04:11:25;24.62;27.21
65369;HTU21D;51970;53.484;49.488;2023-05-24T04:14:12;24.57;27.33
65369;HTU21D;51970;53.484;49.488;2023-05-24T04:16:42;24.56;27.78
65369;HTU21D;51970;53.484;49.488;2023-05-24T04:19:30;24.60;28.16
65369;HTU21D;51970;53.484;49.488;2023-05-24T04:22:01;24.65;28.17
65369;HTU21D;51970;53.484;49.488;2023-05-24T04:24:30;24.59;27.58
65369;HTU21D;51970;53.484;49.488;2023-05-24T04:27:03;24.64;28.05
65369;HTU21D;51970;53.484;49.488;2023-05-24T04:30:01;24.72;27.49
65369;HTU21D;51970;53.484;49.488;2023-05-24T04:33:27;24.88;27.81
65369;HTU21D;51970;53.484;49.488;2023-05-24T04:36:02;25.05;26.80
65369;HTU21D;51970;53.484;49.488;2023-05-24T04:38:30;25.14;26.40
65369;HTU21D;51970;53.484;49.488;2023-05-24T04:41:04;25.07;27.86
65369;HTU21D;51970;53.484;49.488;2023-05-24T04:43:42;25.23;27.29
65369;HTU21D;51970;53.484;49.488;2023-05-24T04:46:34;25.21;27.36
65369;HTU21D;51970;53.484;49.488;2023-05-24T04:49:17;25.22;26.09
65369;HTU21D;51970;53.484;49.488;2023-05-24T04:51:51;25.24;26.80
65369;HTU21D;51970;53.484;49.488;2023-05-24T04:54:21;25.18;26.65
65369;HTU21D;51970;53.484;49.488;2023-05-24T04:57:22;25.18;26.43
65369;HTU21D;51970;53.484;49.488;2023-05-24T05:00:07;25.30;26.72
65369;HTU21D;51970;53.484;49.488;2023-05-24T05:02:43;25.23;25.72
65369;HTU21D;51970;53.484;49.488;2023-05-24T05:05:25;25.24;26.65
65369;HTU21D;51970;53.484;49.488;2023-05-24T05:08:10;25.19;26.04
65369;HTU21D;51970;53.484;49.488;2023-05-24T05:10:44;25.18;26.73
65369;HTU21D;51970;53.484;49.488;2023-05-24T05:13:20;25.10;27.20
65369;HTU21D;51970;53.484;49.488;2023-05-24T05:16:46;25.40;25.36
65369;HTU21D;51970;53.484;49.488;2023-05-24T05:19:28;25.99;24.94
65369;HTU21D;51970;53.484;49.488;2023-05-24T05:22:09;26.31;23.74
65369;HTU21D;51970;53.484;49.488;2023-05-24T05:24:39;26.57;23.56
65369;HTU21D;51970;53.484;49.488;2023-05-24T05:27:17;26.64;24.11
65369;HTU21D;51970;53.484;49.488;2023-05-24T05:30:07;26.56;23.57
65369;HTU21D;51970;53.484;49.488;2023-05-24T05:32:58;26.58;23.33
65369;HTU21D;51970;53.484;49.488;2023-05-24T05:35:34;26.67;23.48
65369;HTU21D;51970;53.484;49.488;2023-05-24T05:38:25;26.79;22.66
65369;HTU21D;51970;53.484;49.488;2023-05-24T05:40:53;26.78;22.37
65369;HTU21D;51970;53.484;49.488;2023-05-24T05:43:33;26.92;22.08
65369;HTU21D;51970;53.484;49.488;2023-05-24T05:46:32;27.08;21.98
65369;HTU21D;51970;53.484;49.488;2023-05-24T05:49:31;27.22;22.16
65369;HTU21D;51970;53.484;49.488;2023-05-24T05:52:11;27.34;22.98
65369;HTU21D;51970;53.484;49.488;2023-05-24T05:54:59;27.10;22.17
65369;HTU21D;51970;53.484;49.488;2023-05-24T05:57:31;27.19;22.28
65369;HTU21D;51970;53.484;49.488;2023-05-24T05:59:58;27.26;23.02
65369;HTU21D;51970;53.484;49.488;2023-05-24T06:02:29;27.31;22.49
65369;HTU21D;51970;53.484;49.488;2023-05-24T06:05:00;27.41;22.88
65369;HTU21D;51970;53.484;49.488;2023-05-24T06:07:53;27.53;22.58
65369;HTU21D;51970;53.484;49.488;2023-05-24T06:10:46;27.46;22.85
65369;HTU21D;51970;53.484;49.488;2023-05-24T06:13:38;27.46;22.79
65369;HTU21D;51970;53.484;49.488;2023-05-24T06:16:09;27.43;23.38
65369;HTU21D;51970;53.484;49.488;2023-05-24T06:18:47;27.63;23.03
65369;HTU21D;51970;53.484;49.488;2023-05-24T06:21:20;27.75;22.67
65369;HTU21D;51970;53.484;49.488;2023-05-24T06:23:56;28.00;22.24
65369;HTU21D;51970;53.484;49.488;2023-05-24T06:26:30;27.90;22.17
65369;HTU21D;51970;53.484;49.488;2023-05-24T06:29:04;27.84;22.56
65369;HTU21D;51970;53.484;49.488;2023-05-24T06:31:32;27.90;22.64
65369;HTU21D;51970;53.484;49.488;2023-05-24T06:34:06;28.05;22.68
65369;HTU21D;51970;53.484;49.488;2023-05-24T06:36:50;28.15;22.73
65369;HTU21D;51970;53.484;49.488;2023-05-24T06:39:33;28.13;22.18
65369;HTU21D;51970;53.484;49.488;2023-05-24T06:42:08;28.05;23.22
65369;HTU21D;51970;53.484;49.488;2023-05-24T06:44:35;28.13;22.06
65369;HTU21D;51970;53.484;49.488;2023-05-24T06:47:12;28.21;21.96
65369;HTU21D;51970;53.484;49.488;2023-05-24T06:49:49;28.26;23.05
65369;HTU21D;51970;53.484;49.488;2023-05-24T06:52:30;28.26;23.68
65369;HTU21D;51970;53.484;49.488;2023-05-24T06:55:05;28.31;23.38
65369;HTU21D;51970;53.484;49.488;2023-05-24T06:57:47;28.29;22.72
65369;HTU21D;51970;53.484;49.488;2023-05-24T07:00:22;28.58;22.53
65369;HTU21D;51970;53.484;49.488;2023-05-24T07:03:05;28.84;23.20
65369;HTU21D;51970;53.484;49.488;2023-05-24T07:05:34;28.71;21.75
65369;HTU21D;51970;53.484;49.488;2023-05-24T07:08:02;28.63;22.69
65369;HTU21D;51970;53.484;49.488;2023-05-24T07:10:31;28.56;23.34
65369;HTU21D;51970;53.484;49.488;2023-05-24T07:13:11;28.45;22.75
65369;HTU21D;51970;53.484;49.488;2023-05-24T07:16:09;28.78;22.57
65369;HTU21D;51970;53.484;49.488;2023-05-24T07:18:39;29.02;22.57
65369;HTU21D;51970;53.484;49.488;2023-05-24T07:21:34;28.86;22.75
65369;HTU21D;51970;53.484;49.488;2023-05-24T07:24:02;28.86;22.23
65369;HTU21D;51970;53.484;49.488;2023-05-24T07:26:31;28.95;21.63
65369;HTU21D;51970;53.484;49.488;2023-05-24T07:29:10;29.08;20.70
65369;HTU21D;51970;53.484;49.488;2023-05-24T07:31:41;28.90;22.08
65369;HTU21D;51970;53.484;49.488;2023-05-24T07:34:33;28.64;21.50
65369;HTU21D;51970;53.484;49.488;2023-05-24T07:37:26;28.87;21.63
65369;HTU21D;51970;53.484;49.488;2023-05-24T07:40:16;29.05;21.69
65369;HTU21D;51970;53.484;49.488;2023-05-24T07:42:56;28.90;21.56
65369;HTU21D;51970;53.484;49.488;2023-05-24T07:45:25;28.90;20.37
65369;HTU21D;51970;53.484;49.488;2023-05-24T07:47:58;29.18;20.78
65369;HTU21D;51970;53.484;49.488;2023-05-24T07:50:28;29.49;21.75
65369;HTU21D;51970;53.484;49.488;2023-05-24T07:52:59;29.59;20.69
65369;HTU21D;51970;53.484;49.488;2023-05-24T07:55:45;29.80;20.65
65369;HTU21D;51970;53.484;49.488;2023-05-24T07:58:17;29.68;20.54
65369;HTU21D;51970;53.484;49.488;2023-05-24T08:01:14;29.66;18.49
65369;HTU21D;51970;53.484;49.488;2023-05-24T08:03:47;29.63;18.57
65369;HTU21D;51970;53.484;49.488;2023-05-24T08:06:16;29.66;17.45
65369;HTU21D;51970;53.484;49.488;2023-05-24T08:08:46;29.89;17.12
65369;HTU21D;51970;53.484;49.488;2023-05-24T08:11:25;30.10;16.45
65369;HTU21D;51970;53.484;49.488;2023-05-24T08:14:00;30.32;16.32
65369;HTU21D;51970;53.484;49.488;2023-05-24T08:16:27;30.51;16.89
65369;HTU21D;51970;53.484;49.488;2023-05-24T08:18:58;30.47;16.92
65369;HTU21D;51970;53.484;49.488;2023-05-24T08:21:37;30.49;16.90
65369;HTU21D;51970;53.484;49.488;2023-05-24T08:24:08;30.20;17.96
65369;HTU21D;51970;53.484;49.488;2023-05-24T08:26:55;30.15;17.40
65369;HTU21D;51970;53.484;49.488;2023-05-24T08:29:56;30.16;16.15
65369;HTU21D;51970;53.484;49.488;2023-05-24T08:32:39;30.33;16.69
65369;HTU21D;51970;53.484;49.488;2023-05-24T08:35:19;30.55;17.19
65369;HTU21D;51970;53.484;49.488;2023-05-24T08:37:55;30.41;17.12
65369;HTU21D;51970;53.484;49.488;2023-05-24T08:40:46;30.21;17.44
65369;HTU21D;51970;53.484;49.488;2023-05-24T08:43:16;30.44;16.78
65369;HTU21D;51970;53.484;49.488;2023-05-24T08:46:07;30.72;16.18
65369;HTU21D;51970;53.484;49.488;2023-05-24T08:49:02;30.89;15.30
65369;HTU21D;51970;53.484;49.488;2023-05-24T08:51:33;31.05;15.84
65369;HTU21D;51970;53.484;49.488;2023-05-24T08:54:06;30.87;15.19
65369;HTU21D;51970;53.484;49.488;2023-05-24T08:56:37;30.91;15.00
65369;HTU21D;51970;53.484;49.488;2023-05-24T08:59:11;30.83;15.23
65369;HTU21D;51970;53.484;49.488;2023-05-24T09:01:44;30.95;15.00
65369;HTU21D;51970;53.484;49.488;2023-05-24T09:04:25;31.10;15.35
65369;HTU21D;51970;53.484;49.488;2023-05-24T09:07:03;31.13;14.73
65369;HTU21D;51970;53.484;49.488;2023-05-24T09:09:41;30.87;14.09
65369;HTU21D;51970;53.484;49.488;2023-05-24T09:12:16;30.72;14.60
65369;HTU21D;51970;53.484;49.488;2023-05-24T09:14:45;30.81;14.01
65369;HTU21D;51970;53.484;49.488;2023-05-24T09:17:21;31.04;13.68
65369;HTU21D;51970;53.484;49.488;2023-05-24T09:19:51;31.26;13.85
65369;HTU21D;51970;53.484;49.488;2023-05-24T09:22:25;31.31;13.39
65369;HTU21D;51970;53.484;49.488;2023-05-24T09:25:11;31.20;14.00
65369;HTU21D;51970;53.484;49.488;2023-05-24T09:27:54;31.25;14.52
65369;HTU21D;51970;53.484;49.488;2023-05-24T09:31:05;31.27;14.74
65369;HTU21D;51970;53.484;49.488;2023-05-24T09:33:54;31.33;14.07
65369;HTU21D;51970;53.484;49.488;2023-05-24T09:36:31;31.33;14.64
65369;HTU21D;51970;53.484;49.488;2023-05-24T09:39:11;31.23;14.21
65369;HTU21D;51970;53.484;49.488;2023-05-24T09:41:52;31.30;14.35
65369;HTU21D;51970;53.484;49.488;2023-05-24T09:44:29;31.21;14.03
65369;HTU21D;51970;53.484;49.488;2023-05-24T09:47:06;30.97;13.84
65369;HTU21D;51970;53.484;49.488;2023-05-24T09:50:00;31.09;13.68
65369;HTU21D;51970;53.484;49.488;2023-05-24T09:52:40;31.12;14.42
65369;HTU21D;51970;53.484;49.488;2023-05-24T09:55:18;31.20;14.43
65369;HTU21D;51970;53.484;49.488;2023-05-24T09:58:14;31.25;13.78
65369;HTU21D;51970;53.484;49.488;2023-05-24T10:01:30;31.19;13.78
65369;HTU21D;51970;53.484;49.488;2023-05-24T10:03:59;31.16;13.25
65369;HTU21D;51970;53.484;49.488;2023-05-24T10:06:35;31.34;14.52
65369;HTU21D;51970;53.484;49.488;2023-05-24T10:09:43;31.53;13.96
65369;HTU21D;51970;53.484;49.488;2023-05-24T10:12:18;31.54;13.54
65369;HTU21D;51970;53.484;49.488;2023-05-24T10:14:58;31.71;13.45
65369;HTU21D;51970;53.484;49.488;2023-05-24T10:18:12;31.66;14.00
65369;HTU21D;51970;53.484;49.488;2023-05-24T10:21:15;31.75;13.70
65369;HTU21D;51970;53.484;49.488;2023-05-24T10:24:07;31.80;13.91
65369;HTU21D;51970;53.484;49.488;2023-05-24T10:26:39;31.76;14.89
65369;HTU21D;51970;53.484;49.488;2023-05-24T10:30:15;31.74;13.84
65369;HTU21D;51970;53.484;49.488;2023-05-24T10:32:50;31.60;14.52
65369;HTU21D;51970;53.484;49.488;2023-05-24T10:35:47;31.55;14.55
65369;HTU21D;51970;53.484;49.488;2023-05-24T10:38:24;31.54;14.36
65369;HTU21D;51970;53.484;49.488;2023-05-24T10:41:00;31.57;14.07
65369;HTU21D;51970;53.484;49.488;2023-05-24T10:43:34;31.67;13.69
65369;HTU21D;51970;53.484;49.488;2023-05-24T10:46:08;31.68;12.84
65369;HTU21D;51970;53.484;49.488;2023-05-24T10:48:40;31.57;14.44
65369;HTU21D;51970;53.484;49.488;2023-05-24T10:51:32;31.54;13.48
65369;HTU21D;51970;53.484;49.488;2023-05-24T10:54:37;31.44;14.14
65369;HTU21D;51970;53.484;49.488;2023-05-24T10:57:27;31.37;13.27
65369;HTU21D;51970;53.484;49.488;2023-05-24T11:00:25;31.46;13.50
65369;HTU21D;51970;53.484;49.488;2023-05-24T11:03:32;31.72;13.73
65369;HTU21D;51970;53.484;49.488;2023-05-24T11:06:53;31.71;13.59
65369;HTU21D;51970;53.484;49.488;2023-05-24T11:09:38;31.54;13.20
65369;HTU21D;51970;53.484;49.488;2023-05-24T11:12:16;31.50;13.94
65369;HTU21D;51970;53.484;49.488;2023-05-24T11:15:10;31.69;14.51
65369;HTU21D;51970;53.484;49.488;2023-05-24T11:18:13;31.51;13.71
65369;HTU21D;51970;53.484;49.488;2023-05-24T11:20:47;31.68;13.62
65369;HTU21D;51970;53.484;49.488;2023-05-24T11:23:18;31.80;12.95
65369;HTU21D;51970;53.484;49.488;2023-05-24T11:26:10;31.86;13.35
65369;HTU21D;51970;53.484;49.488;2023-05-24T11:28:41;32.07;13.42
65369;HTU21D;51970;53.484;49.488;2023-05-24T11:31:14;31.89;13.68
65369;HTU21D;51970;53.484;49.488;2023-05-24T11:33:51;31.72;13.70
65369;HTU21D;51970;53.484;49.488;2023-05-24T11:36:32;31.75;13.97
65369;HTU21D;51970;53.484;49.488;2023-05-24T11:39:27;31.75;13.07
65369;HTU21D;51970;53.484;49.488;2023-05-24T11:41:59;31.79;13.30
65369;HTU21D;51970;53.484;49.488;2023-05-24T11:44:40;31.67;13.19
65369;HTU21D;51970;53.484;49.488;2023-05-24T11:47:13;31.64;13.25
65369;HTU21D;51970;53.484;49.488;2023-05-24T11:49:55;31.79;13.47
65369;HTU21D;51970;53.484;49.488;2023-05-24T11:52:40;31.80;13.65
65369;HTU21D;51970;53.484;49.488;2023-05-24T11:55:12;31.67;14.29
65369;HTU21D;51970;53.484;49.488;2023-05-24T11:57:53;31.66;14.07
65369;HTU21D;51970;53.484;49.488;2023-05-24T12:00:41;31.50;13.07
65369;HTU21D;51970;53.484;49.488;2023-05-24T12:03:31;31.38;13.76
65369;HTU21D;51970;53.484;49.488;2023-05-24T12:06:01;31.41;14.29
65369;HTU21D;51970;53.484;49.488;2023-05-24T12:08:32;31.54;13.81
65369;HTU21D;51970;53.484;49.488;2023-05-24T12:11:06;31.60;14.33
65369;HTU21D;51970;53.484;49.488;2023-05-24T12:13:54;31.35;14.23
65369;HTU21D;51970;53.484;49.488;2023-05-24T12:16:22;31.37;13.68
65369;HTU21D;51970;53.484;49.488;2023-05-24T12:18:52;31.49;13.94
65369;HTU21D;51970;53.484;49.488;2023-05-24T12:21:27;31.54;14.27
65369;HTU21D;51970;53.484;49.488;2023-05-24T12:24:11;31.52;14.07
65369;HTU21D;51970;53.484;49.488;2023-05-24T12:26:59;31.55;14.10
65369;HTU21D;51970;53.484;49.488;2023-05-24T12:29:40;31.51;13.98
65369;HTU21D;51970;53.484;49.488;2023-05-24T12:32:09;31.39;13.97
65369;HTU21D;51970;53.484;49.488;2023-05-24T12:35:12;31.35;14.58
65369;HTU21D;51970;53.484;49.488;2023-05-24T12:37:58;31.44;14.18
65369;HTU21D;51970;53.484;49.488;2023-05-24T12:40:33;31.31;14.45
65369;HTU21D;51970;53.484;49.488;2023-05-24T12:43:03;31.22;13.80
65369;HTU21D;51970;53.484;49.488;2023-05-24T12:49:24;31.07;13.16
65369;HTU21D;51970;53.484;49.488;2023-05-24T12:52:49;30.94;13.43
65369;HTU21D;51970;53.484;49.488;2023-05-24T12:55:25;30.97;14.23
65369;HTU21D;51970;53.484;49.488;2023-05-24T12:57:54;30.91;14.63
65369;HTU21D;51970;53.484;49.488;2023-05-24T13:00:53;30.98;13.93
65369;HTU21D;51970;53.484;49.488;2023-05-24T13:03:33;31.12;13.65
65369;HTU21D;51970;53.484;49.488;2023-05-24T13:06:10;30.98;14.04
65369;HTU21D;51970;53.484;49.488;2023-05-24T13:09:18;31.04;14.06
65369;HTU21D;51970;53.484;49.488;2023-05-24T13:12:49;30.90;13.56
65369;HTU21D;51970;53.484;49.488;2023-05-24T13:15:46;30.96;13.65
65369;HTU21D;51970;53.484;49.488;2023-05-24T13:18:16;30.97;13.45
65369;HTU21D;51970;53.484;49.488;2023-05-24T13:21:10;31.06;13.75
65369;HTU21D;51970;53.484;49.488;2023-05-24T13:24:27;31.01;13.96
65369;HTU21D;51970;53.484;49.488;2023-05-24T13:26:57;30.90;14.01
65369;HTU21D;51970;53.484;49.488;2023-05-24T13:29:31;30.79;13.95
65369;HTU21D;51970;53.484;49.488;2023-05-24T13:35:32;30.70;14.62
65369;HTU21D;51970;53.484;49.488;2023-05-24T13:46:07;30.60;14.60
65369;HTU21D;51970;53.484;49.488;2023-05-24T13:52:42;30.44;15.19
65369;HTU21D;51970;53.484;49.488;2023-05-24T13:55:22;30.41;15.33
65369;HTU21D;51970;53.484;49.488;2023-05-24T13:58:13;30.56;15.64
65369;HTU21D;51970;53.484;49.488;2023-05-24T14:00:57;31.19;14.36
65369;HTU21D;51970;53.484;49.488;2023-05-24T14:03:39;31.60;13.97
65369;HTU21D;51970;53.484;49.488;2023-05-24T14:06:43;31.99;13.11
65369;HTU21D;51970;53.484;49.488;2023-05-24T14:12:17;32.45;13.29
65369;HTU21D;51970;53.484;49.488;2023-05-24T14:14:53;32.55;13.10
65369;HTU21D;51970;53.484;49.488;2023-05-24T14:20:36;32.71;12.15
65369;HTU21D;51970;53.484;49.488;2023-05-24T14:26:10;33.13;12.02
65369;HTU21D;51970;53.484;49.488;2023-05-24T14:29:11;33.28;12.32
65369;HTU21D;51970;53.484;49.488;2023-05-24T14:31:48;33.19;12.32
65369;HTU21D;51970;53.484;49.488;2023-05-24T14:34:30;33.18;12.30
65369;HTU21D;51970;53.484;49.488;2023-05-24T14:37:06;33.22;12.59
65369;HTU21D;51970;53.484;49.488;2023-05-24T14:40:51;33.64;12.40
65369;HTU21D;51970;53.484;49.488;2023-05-24T14:43:19;33.94;12.27
65369;HTU21D;51970;53.484;49.488;2023-05-24T14:46:34;34.18;11.85
65369;HTU21D;51970;53.484;49.488;2023-05-24T14:49:36;34.09;11.59
65369;HTU21D;51970;53.484;49.488;2023-05-24T14:52:11;33.85;11.79
65369;HTU21D;51970;53.484;49.488;2023-05-24T14:56:13;33.51;11.33
65369;HTU21D;51970;53.484;49.488;2023-05-24T14:59:01;31.71;13.51
65369;HTU21D;51970;53.484;49.488;2023-05-24T15:01:36;30.60;15.07
65369;HTU21D;51970;53.484;49.488;2023-05-24T15:05:18;29.91;16.25
65369;HTU21D;51970;53.484;49.488;2023-05-24T15:08:22;29.51;16.80
65369;HTU21D;51970;53.484;49.488;2023-05-24T15:14:59;29.05;17.32
65369;HTU21D;51970;53.484;49.488;2023-05-24T15:17:55;28.89;17.77
65369;HTU21D;51970;53.484;49.488;2023-05-24T15:24:15;28.65;18.11
65369;HTU21D;51970;53.484;49.488;2023-05-24T15:30:05;28.45;18.35
65369;HTU21D;51970;53.484;49.488;2023-05-24T15:32:35;28.32;18.12
65369;HTU21D;51970;53.484;49.488;2023-05-24T15:35:51;28.20;18.22
65369;HTU21D;51970;53.484;49.488;2023-05-24T15:39:06;28.11;18.28
65369;HTU21D;51970;53.484;49.488;2023-05-24T15:44:34;27.94;18.48
65369;HTU21D;51970;53.484;49.488;2023-05-24T15:47:35;27.83;18.71
65369;HTU21D;51970;53.484;49.488;2023-05-24T15:50:12;27.74;18.87
65369;HTU21D;51970;53.484;49.488;2023-05-24T15:53:47;27.66;18.92
65369;HTU21D;51970;53.484;49.488;2023-05-24T15:56:58;27.56;19.60
65369;HTU21D;51970;53.484;49.488;2023-05-24T16:02:25;27.32;20.59
65369;HTU21D;51970;53.484;49.488;2023-05-24T16:05:26;27.14;21.10
65369;HTU21D;51970;53.484;49.488;2023-05-24T16:08:35;27.00;21.18
65369;HTU21D;51970;53.484;49.488;2023-05-24T16:11:26;26.90;21.60
65369;HTU21D;51970;53.484;49.488;2023-05-24T16:23:35;26.47;22.23
65369;HTU21D;51970;53.484;49.488;2023-05-24T16:26:10;26.37;22.47
65369;HTU21D;51970;53.484;49.488;2023-05-24T16:29:06;26.20;22.88
65369;HTU21D;51970;53.484;49.488;2023-05-24T16:31:44;26.07;23.05
65369;HTU21D;51970;53.484;49.488;2023-05-24T16:34:16;25.95;23.26
65369;HTU21D;51970;53.484;49.488;2023-05-24T16:37:09;25.83;23.37
65369;HTU21D;51970;53.484;49.488;2023-05-24T16:39:55;25.72;23.61
65369;HTU21D;51970;53.484;49.488;2023-05-24T16:42:52;25.62;23.98
65369;HTU21D;51970;53.484;49.488;2023-05-24T16:48:11;25.37;24.51
65369;HTU21D;51970;53.484;49.488;2023-05-24T16:53:58;25.13;25.02
65369;HTU21D;51970;53.484;49.488;2023-05-24T16:56:59;25.03;25.25
65369;HTU21D;51970;53.484;49.488;2023-05-24T16:59:52;24.95;25.59
65369;HTU21D;51970;53.484;49.488;2023-05-24T17:02:39;24.86;25.75
65369;HTU21D;51970;53.484;49.488;2023-05-24T17:05:38;24.77;26.03
65369;HTU21D;51970;53.484;49.488;2023-05-24T17:08:28;24.70;26.23
65369;HTU21D;51970;53.484;49.488;2023-05-24T17:11:42;24.55;26.56
65369;HTU21D;51970;53.484;49.488;2023-05-24T17:14:12;24.48;26.81
65369;HTU21D;51970;53.484;49.488;2023-05-24T17:16:43;24.43;26.96
65369;HTU21D;51970;53.484;49.488;2023-05-24T17:19:53;24.30;27.19
65369;HTU21D;51970;53.484;49.488;2023-05-24T17:22:28;24.25;27.49
65369;HTU21D;51970;53.484;49.488;2023-05-24T17:59:56;22.83;31.54
65369;HTU21D;51970;53.484;49.488;2023-05-24T18:02:53;22.82;31.10
65369;HTU21D;51970;53.484;49.488;2023-05-24T18:06:12;22.97;30.53
65369;HTU21D;51970;53.484;49.488;2023-05-24T18:08:45;23.08;30.59
65369;HTU21D;51970;53.484;49.488;2023-05-24T18:11:47;23.10;30.87
65369;HTU21D;51970;53.484;49.488;2023-05-24T18:15:22;23.02;30.64
65369;HTU21D;51970;53.484;49.488;2023-05-24T18:22:11;22.98;31.01
65369;HTU21D;51970;53.484;49.488;2023-05-24T18:24:41;22.97;30.94
65369;HTU21D;51970;53.484;49.488;2023-05-24T18:27:19;22.98;31.08
65369;HTU21D;51970;53.484;49.488;2023-05-24T18:33:42;23.17;30.46
65369;HTU21D;51970;53.484;49.488;2023-05-24T18:36:37;23.16;30.33